sensor_id;sensor_type;location;lat;lon;timestamp;pressure;altitude;pressure_sealevel;temperature;humidity
8398;BME280;4236;54.504;9.588;2023-08-20T00:02:13;102061.47;;;18.30;100.00
8398;BME280;4236;54.504;9.588;2023-08-20T00:04:43;102073.31;;;18.29;100.00
8398;BME280;4236;54.504;9.588;2023-08-20T00:07:14;102062.94;;;18.25;100.00
8398;BME280;4236;54.504;9.588;2023-08-20T00:09:46;102066.06;;;18.22;100.00
8398;BME280;4236;54.504;9.588;2023-08-20T00:12:13;102057.13;;;18.22;100.00
8398;BME280;4236;54.504;9.588;2023-08-20T00:14:55;102061.28;;;18.24;100.00
8398;BME280;4236;54.504;9.588;2023-08-20T00:17:25;102067.72;;;18.23;100.00
8398;BME280;4236;54.504;9.588;2023-08-20T00:19:54;102073.72;;;18.25;100.00
8398;BME280;4236;54.504;9.588;2023-08-20T00:22:22;102068.97;;;18.28;100.00
8398;BME280;4236;54.504;9.588;2023-08-20T00:24:53;102073.31;;;18.29;100.00
8398;BME280;4236;54.504;9.588;2023-08-20T00:27:21;102066.88;;;18.30;100.00
8398;BME280;4236;54.504;9.588;2023-08-20T00:29:49;102072.88;;;18.32;100.00
8398;BME280;4236;54.504;9.588;2023-08-20T00:32:17;102078.28;;;18.32;100.00
8398;BME280;4236;54.504;9.588;2023-08-20T00:34:44;102084.75;;;18.31;100.00
8398;BME280;4236;54.504;9.588;2023-08-20T00:37:12;102089.91;;;18.32;100.00
8398;BME280;4236;54.504;9.588;2023-08-20T00:39:40;102082.84;;;18.31;100.00
8398;BME280;4236;54.504;9.588;2023-08-20T00:42:09;102086.19;;;18.33;100.00
8398;BME280;4236;54.504;9.588;2023-08-20T00:44:37;102094.91;;;18.29;100.00
8398;BME280;4236;54.504;9.588;2023-08-20T00:47:05;102097.00;;;18.27;100.00
8398;BME280;4236;54.504;9.588;2023-08-20T00:49:33;102101.56;;;18.26;100.00
8398;BME280;4236;54.504;9.588;2023-08-20T00:52:02;102107.19;;;18.24;100.00
8398;BME280;4236;54.504;9.588;2023-08-20T00:54:31;102101.41;;;18.21;100.00
8398;BME280;4236;54.504;9.588;2023-08-20T00:57:01;102100.56;;;18.20;100.00
8398;BME280;4236;54.504;9.588;2023-08-20T00:59:32;102101.59;;;18.19;100.00
8398;BME280;4236;54.504;9.588;2023-08-20T01:02:00;102099.94;;;18.18;100.00
8398;BME280;4236;54.504;9.588;2023-08-20T01:04:30;102092.88;;;18.17;100.00
8398;BME280;4236;54.504;9.588;2023-08-20T01:07:04;102089.16;;;18.18;100.00
8398;BME280;4236;54.504;9.588;2023-08-20T01:09:43;102097.69;;;18.15;100.00
8398;BME280;4236;54.504;9.588;2023-08-20T01:12:17;102094.78;;;18.10;100.00
8398;BME280;4236;54.504;9.588;2023-08-20T01:14:46;102090.03;;;18.06;100.00
8398;BME280;4236;54.504;9.588;2023-08-20T01:17:14;102096.28;;;18.00;100.00
8398;BME280;4236;54.504;9.588;2023-08-20T01:19:42;102095.25;;;17.94;100.00
8398;BME280;4236;54.504;9.588;2023-08-20T01:22:36;102104.38;;;17.93;100.00
8398;BME280;4236;54.504;9.588;2023-08-20T01:25:13;102099.00;;;17.87;100.00
8398;BME280;4236;54.504;9.588;2023-08-20T01:27:52;102096.31;;;17.80;100.00
8398;BME280;4236;54.504;9.588;2023-08-20T01:30:27;102101.75;;;17.74;100.00
8398;BME280;4236;54.504;9.588;2023-08-20T01:32:56;102107.75;;;17.69;100.00
8398;BME280;4236;54.504;9.588;2023-08-20T01:35:24;102099.47;;;17.64;100.00
8398;BME280;4236;54.504;9.588;2023-08-20T01:37:52;102101.97;;;17.59;100.00
8398;BME280;4236;54.504;9.588;2023-08-20T01:40:20;102095.50;;;17.53;100.00
8398;BME280;4236;54.504;9.588;2023-08-20T01:42:48;102094.47;;;17.48;100.00
8398;BME280;4236;54.504;9.588;2023-08-20T01:45:16;102100.69;;;17.42;100.00
8398;BME280;4236;54.504;9.588;2023-08-20T01:47:46;102101.53;;;17.36;100.00
8398;BME280;4236;54.504;9.588;2023-08-20T01:50:13;102099.47;;;17.31;100.00
8398;BME280;4236;54.504;9.588;2023-08-20T01:52:41;102102.78;;;17.27;100.00
8398;BME280;4236;54.504;9.588;2023-08-20T01:55:09;102103.19;;;17.24;100.00
8398;BME280;4236;54.504;9.588;2023-08-20T01:57:36;102109.84;;;17.21;100.00
8398;BME280;4236;54.504;9.588;2023-08-20T02:00:05;102101.75;;;17.21;100.00
8398;BME280;4236;54.504;9.588;2023-08-20T02:02:34;102098.84;;;17.23;100.00
8398;BME280;4236;54.504;9.588;2023-08-20T02:05:04;102099.47;;;17.25;100.00
8398;BME280;4236;54.504;9.588;2023-08-20T02:07:32;102099.28;;;17.26;100.00
8398;BME280;4236;54.504;9.588;2023-08-20T02:10:00;102084.56;;;17.29;100.00
8398;BME280;4236;54.504;9.588;2023-08-20T02:12:28;102101.75;;;17.34;100.00
8398;BME280;4236;54.504;9.588;2023-08-20T02:14:56;102090.75;;;17.36;100.00
8398;BME280;4236;54.504;9.588;2023-08-20T02:17:24;102090.97;;;17.41;100.00
8398;BME280;4236;54.504;9.588;2023-08-20T02:19:51;102088.06;;;17.42;100.00
8398;BME280;4236;54.504;9.588;2023-08-20T02:22:20;102083.50;;;17.43;100.00
8398;BME280;4236;54.504;9.588;2023-08-20T02:24:48;102087.22;;;17.42;100.00
8398;BME280;4236;54.504;9.588;2023-08-20T02:27:16;102099.25;;;17.46;100.00
8398;BME280;4236;54.504;9.588;2023-08-20T02:29:43;102090.13;;;17.47;100.00
8398;BME280;4236;54.504;9.588;2023-08-20T02:32:12;102088.25;;;17.47;100.00
8398;BME280;4236;54.504;9.588;2023-08-20T02:34:39;102089.50;;;17.51;100.00
8398;BME280;4236;54.504;9.588;2023-08-20T02:37:07;102093.44;;;17.49;100.00
8398;BME280;4236;54.504;9.588;2023-08-20T02:39:36;102102.16;;;17.51;100.00
8398;BME280;4236;54.504;9.588;2023-08-20T02:42:04;102093.88;;;17.52;100.00
8398;BME280;4236;54.504;9.588;2023-08-20T02:44:31;102105.28;;;17.54;100.00
8398;BME280;4236;54.504;9.588;2023-08-20T02:46:59;102103.59;;;17.53;100.00
8398;BME280;4236;54.504;9.588;2023-08-20T02:49:27;102084.31;;;17.50;100.00
8398;BME280;4236;54.504;9.588;2023-08-20T02:51:54;102088.47;;;17.46;100.00
8398;BME280;4236;54.504;9.588;2023-08-20T02:54:22;102086.59;;;17.40;100.00
8398;BME280;4236;54.504;9.588;2023-08-20T02:56:51;102104.44;;;17.34;100.00
8398;BME280;4236;54.504;9.588;2023-08-20T02:59:18;102106.31;;;17.27;100.00
8398;BME280;4236;54.504;9.588;2023-08-20T03:01:47;102099.88;;;17.22;100.00
8398;BME280;4236;54.504;9.588;2023-08-20T03:04:15;102099.25;;;17.13;100.00
8398;BME280;4236;54.504;9.588;2023-08-20T03:06:43;102105.25;;;17.08;100.00
8398;BME280;4236;54.504;9.588;2023-08-20T03:09:10;102104.22;;;17.03;100.00
8398;BME280;4236;54.504;9.588;2023-08-20T03:11:38;102100.06;;;17.00;100.00
8398;BME280;4236;54.504;9.588;2023-08-20T03:14:07;102094.25;;;16.97;100.00
8398;BME280;4236;54.504;9.588;2023-08-20T03:16:35;102101.97;;;16.93;100.00
8398;BME280;4236;54.504;9.588;2023-08-20T03:19:03;102093.44;;;16.90;100.00
8398;BME280;4236;54.504;9.588;2023-08-20T03:21:31;102095.50;;;16.88;100.00
8398;BME280;4236;54.504;9.588;2023-08-20T03:23:59;102093.22;;;16.85;100.00
8398;BME280;4236;54.504;9.588;2023-08-20T03:26:27;102094.88;;;16.86;100.00
8398;BME280;4236;54.504;9.588;2023-08-20T03:28:54;102101.28;;;16.85;100.00
8398;BME280;4236;54.504;9.588;2023-08-20T03:31:23;102097.38;;;16.87;100.00
8398;BME280;4236;54.504;9.588;2023-08-20T03:33:51;102103.56;;;16.88;100.00
8398;BME280;4236;54.504;9.588;2023-08-20T03:36:19;102121.22;;;16.90;100.00
8398;BME280;4236;54.504;9.588;2023-08-20T03:38:46;102119.16;;;16.92;100.00
8398;BME280;4236;54.504;9.588;2023-08-20T03:41:14;102118.75;;;16.95;100.00
8398;BME280;4236;54.504;9.588;2023-08-20T03:43:42;102129.28;;;16.97;100.00
8398;BME280;4236;54.504;9.588;2023-08-20T03:46:09;102130.75;;;16.99;100.00
8398;BME280;4236;54.504;9.588;2023-08-20T03:48:38;102129.13;;;17.05;100.00
8398;BME280;4236;54.504;9.588;2023-08-20T03:51:06;102128.31;;;17.11;100.00
8398;BME280;4236;54.504;9.588;2023-08-20T03:53:33;102128.50;;;17.16;100.00
8398;BME280;4236;54.504;9.588;2023-08-20T03:56:01;102135.78;;;17.22;100.00
8398;BME280;4236;54.504;9.588;2023-08-20T03:58:29;102136.81;;;17.28;100.00
8398;BME280;4236;54.504;9.588;2023-08-20T04:00:57;102145.09;;;17.33;100.00
8398;BME280;4236;54.504;9.588;2023-08-20T04:03:25;102147.78;;;17.39;100.00
8398;BME280;4236;54.504;9.588;2023-08-20T04:05:54;102141.16;;;17.42;100.00
8398;BME280;4236;54.504;9.588;2023-08-20T04:08:21;102139.72;;;17.46;100.00
8398;BME280;4236;54.504;9.588;2023-08-20T04:10:49;102136.59;;;17.49;100.00
8398;BME280;4236;54.504;9.588;2023-08-20T04:13:17;102133.47;;;17.52;100.00
8398;BME280;4236;54.504;9.588;2023-08-20T04:15:45;102150.97;;;17.56;100.00
8398;BME280;4236;54.504;9.588;2023-08-20T04:18:13;102141.59;;;17.58;100.00
8398;BME280;4236;54.504;9.588;2023-08-20T04:20:40;102150.72;;;17.64;100.00
8398;BME280;4236;54.504;9.588;2023-08-20T04:23:10;102145.53;;;17.69;100.00
8398;BME280;4236;54.504;9.588;2023-08-20T04:25:38;102135.16;;;17.73;100.00
8398;BME280;4236;54.504;9.588;2023-08-20T04:28:06;102135.34;;;17.78;100.00
8398;BME280;4236;54.504;9.588;2023-08-20T04:30:34;102133.91;;;17.82;100.00
8398;BME280;4236;54.504;9.588;2023-08-20T04:33:02;102131.59;;;17.85;100.00
8398;BME280;4236;54.504;9.588;2023-08-20T04:35:30;102138.22;;;17.89;100.00
8398;BME280;4236;54.504;9.588;2023-08-20T04:37:58;102125.97;;;17.93;100.00
8398;BME280;4236;54.504;9.588;2023-08-20T04:40:27;102131.56;;;17.98;100.00
8398;BME280;4236;54.504;9.588;2023-08-20T04:42:55;102131.97;;;18.02;100.00
8398;BME280;4236;54.504;9.588;2023-08-20T04:45:23;102142.16;;;18.06;100.00
8398;BME280;4236;54.504;9.588;2023-08-20T04:47:50;102138.19;;;18.09;100.00
8398;BME280;4236;54.504;9.588;2023-08-20T04:50:18;102139.63;;;18.11;100.00
8398;BME280;4236;54.504;9.588;2023-08-20T04:52:47;102135.50;;;18.09;100.00
8398;BME280;4236;54.504;9.588;2023-08-20T04:55:15;102120.72;;;18.11;100.00
8398;BME280;4236;54.504;9.588;2023-08-20T04:57:44;102117.19;;;18.11;100.00
8398;BME280;4236;54.504;9.588;2023-08-20T05:00:12;102121.97;;;18.15;100.00
8398;BME280;4236;54.504;9.588;2023-08-20T05:02:39;102124.03;;;18.20;100.00
8398;BME280;4236;54.504;9.588;2023-08-20T05:05:08;102123.00;;;18.21;100.00
8398;BME280;4236;54.504;9.588;2023-08-20T05:07:35;102108.66;;;18.20;100.00
8398;BME280;4236;54.504;9.588;2023-08-20T05:10:04;102112.97;;;18.28;100.00
8398;BME280;4236;54.504;9.588;2023-08-20T05:12:32;102112.34;;;18.33;100.00
8398;BME280;4236;54.504;9.588;2023-08-20T05:15:01;102120.63;;;18.38;100.00
8398;BME280;4236;54.504;9.588;2023-08-20T05:17:29;102122.28;;;18.45;100.00
8398;BME280;4236;54.504;9.588;2023-08-20T05:19:57;102134.13;;;18.51;100.00
8398;BME280;4236;54.504;9.588;2023-08-20T05:22:24;102133.69;;;18.54;100.00
8398;BME280;4236;54.504;9.588;2023-08-20T05:24:52;102142.13;;;18.64;100.00
8398;BME280;4236;54.504;9.588;2023-08-20T05:27:20;102139.63;;;18.69;100.00
8398;BME280;4236;54.504;9.588;2023-08-20T05:29:47;102136.06;;;18.75;100.00
8398;BME280;4236;54.504;9.588;2023-08-20T05:32:16;102146.44;;;18.78;100.00
8398;BME280;4236;54.504;9.588;2023-08-20T05:34:44;102150.75;;;18.86;100.00
8398;BME280;4236;54.504;9.588;2023-08-20T05:37:12;102149.00;;;18.98;100.00
8398;BME280;4236;54.504;9.588;2023-08-20T05:39:41;102151.44;;;19.06;100.00
8398;BME280;4236;54.504;9.588;2023-08-20T05:42:09;102153.50;;;19.10;100.00
8398;BME280;4236;54.504;9.588;2023-08-20T05:44:36;102153.13;;;19.07;100.00
8398;BME280;4236;54.504;9.588;2023-08-20T05:47:04;102150.38;;;19.13;100.00
8398;BME280;4236;54.504;9.588;2023-08-20T05:49:34;102141.53;;;19.24;100.00
8398;BME280;4236;54.504;9.588;2023-08-20T05:52:02;102144.41;;;19.29;100.00
8398;BME280;4236;54.504;9.588;2023-08-20T05:54:30;102136.88;;;19.38;100.00
8398;BME280;4236;54.504;9.588;2023-08-20T05:56:58;102140.38;;;19.45;100.00
8398;BME280;4236;54.504;9.588;2023-08-20T05:59:26;102148.59;;;19.57;100.00
8398;BME280;4236;54.504;9.588;2023-08-20T06:01:53;102152.22;;;19.69;100.00
8398;BME280;4236;54.504;9.588;2023-08-20T06:04:22;102152.09;;;19.82;100.00
8398;BME280;4236;54.504;9.588;2023-08-20T06:06:51;102157.75;;;19.99;100.00
8398;BME280;4236;54.504;9.588;2023-08-20T06:09:19;102154.84;;;20.18;100.00
8398;BME280;4236;54.504;9.588;2023-08-20T06:11:46;102145.66;;;20.37;100.00
8398;BME280;4236;54.504;9.588;2023-08-20T06:14:14;102145.72;;;20.49;100.00
8398;BME280;4236;54.504;9.588;2023-08-20T06:16:42;102140.84;;;20.58;100.00
8398;BME280;4236;54.504;9.588;2023-08-20T06:19:10;102139.94;;;20.64;100.00
8398;BME280;4236;54.504;9.588;2023-08-20T06:21:38;102138.91;;;20.76;100.00
8398;BME280;4236;54.504;9.588;2023-08-20T06:24:07;102145.06;;;20.83;100.00
8398;BME280;4236;54.504;9.588;2023-08-20T06:26:35;102141.44;;;20.89;100.00
8398;BME280;4236;54.504;9.588;2023-08-20T06:29:03;102134.72;;;20.92;100.00
8398;BME280;4236;54.504;9.588;2023-08-20T06:31:31;102133.34;;;21.01;100.00
8398;BME280;4236;54.504;9.588;2023-08-20T06:33:58;102136.41;;;21.05;100.00
8398;BME280;4236;54.504;9.588;2023-08-20T06:36:26;102135.56;;;21.04;100.00
8398;BME280;4236;54.504;9.588;2023-08-20T06:38:54;102137.25;;;21.05;100.00
8398;BME280;4236;54.504;9.588;2023-08-20T06:41:23;102143.47;;;21.06;100.00
8398;BME280;4236;54.504;9.588;2023-08-20T06:43:51;102136.88;;;21.02;100.00
8398;BME280;4236;54.504;9.588;2023-08-20T06:46:18;102142.50;;;21.00;100.00
8398;BME280;4236;54.504;9.588;2023-08-20T06:48:46;102158.03;;;21.11;100.00
8398;BME280;4236;54.504;9.588;2023-08-20T06:51:14;102153.78;;;21.15;100.00
8398;BME280;4236;54.504;9.588;2023-08-20T06:53:42;102170.69;;;21.17;100.00
8398;BME280;4236;54.504;9.588;2023-08-20T06:56:10;102165.25;;;21.17;100.00
8398;BME280;4236;54.504;9.588;2023-08-20T06:58:41;102165.50;;;21.27;100.00
8398;BME280;4236;54.504;9.588;2023-08-20T07:01:09;102167.53;;;21.32;100.00
8398;BME280;4236;54.504;9.588;2023-08-20T07:03:39;102179.78;;;21.34;100.00
8398;BME280;4236;54.504;9.588;2023-08-20T07:06:09;102186.75;;;21.42;100.00
8398;BME280;4236;54.504;9.588;2023-08-20T07:08:37;102189.03;;;21.57;100.00
8398;BME280;4236;54.504;9.588;2023-08-20T07:11:06;102182.44;;;21.52;100.00
8398;BME280;4236;54.504;9.588;2023-08-20T07:13:34;102178.16;;;21.45;100.00
8398;BME280;4236;54.504;9.588;2023-08-20T07:16:03;102179.47;;;21.54;100.00
8398;BME280;4236;54.504;9.588;2023-08-20T07:18:31;102181.25;;;21.60;100.00
8398;BME280;4236;54.504;9.588;2023-08-20T07:20:59;102174.88;;;21.78;100.00
8398;BME280;4236;54.504;9.588;2023-08-20T07:23:26;102187.28;;;21.74;100.00
8398;BME280;4236;54.504;9.588;2023-08-20T07:26:04;102190.00;;;21.85;100.00
8398;BME280;4236;54.504;9.588;2023-08-20T07:28:32;102184.22;;;22.17;100.00
8398;BME280;4236;54.504;9.588;2023-08-20T07:31:15;102189.84;;;22.90;100.00
8398;BME280;4236;54.504;9.588;2023-08-20T07:33:45;102181.53;;;23.58;100.00
8398;BME280;4236;54.504;9.588;2023-08-20T07:36:14;102170.16;;;24.59;100.00
8398;BME280;4236;54.504;9.588;2023-08-20T07:38:42;102158.72;;;24.84;100.00
8398;BME280;4236;54.504;9.588;2023-08-20T07:41:10;102154.38;;;25.15;100.00
8398;BME280;4236;54.504;9.588;2023-08-20T07:43:39;102144.69;;;25.61;100.00
8398;BME280;4236;54.504;9.588;2023-08-20T07:46:07;102137.00;;;26.05;100.00
8398;BME280;4236;54.504;9.588;2023-08-20T07:48:37;102142.22;;;26.78;100.00
8398;BME280;4236;54.504;9.588;2023-08-20T07:51:05;102135.72;;;27.00;100.00
8398;BME280;4236;54.504;9.588;2023-08-20T07:53:33;102136.53;;;27.15;100.00
8398;BME280;4236;54.504;9.588;2023-08-20T07:56:01;102129.59;;;26.67;100.00
8398;BME280;4236;54.504;9.588;2023-08-20T07:58:29;102132.28;;;26.42;100.00
8398;BME280;4236;54.504;9.588;2023-08-20T08:00:57;102131.53;;;26.05;100.00
8398;BME280;4236;54.504;9.588;2023-08-20T08:03:25;102134.13;;;25.74;100.00
8398;BME280;4236;54.504;9.588;2023-08-20T08:05:55;102132.91;;;25.55;100.00
8398;BME280;4236;54.504;9.588;2023-08-20T08:08:23;102141.28;;;25.85;100.00
8398;BME280;4236;54.504;9.588;2023-08-20T08:10:51;102151.31;;;26.17;100.00
8398;BME280;4236;54.504;9.588;2023-08-20T08:13:20;102150.06;;;25.93;100.00
8398;BME280;4236;54.504;9.588;2023-08-20T08:15:48;102158.09;;;26.09;100.00
8398;BME280;4236;54.504;9.588;2023-08-20T08:18:17;102153.63;;;25.93;100.00
8398;BME280;4236;54.504;9.588;2023-08-20T08:20:46;102165.47;;;26.14;100.00
8398;BME280;4236;54.504;9.588;2023-08-20T08:23:15;102154.75;;;26.49;100.00
8398;BME280;4236;54.504;9.588;2023-08-20T08:25:43;102154.50;;;26.04;100.00
8398;BME280;4236;54.504;9.588;2023-08-20T08:28:11;102153.63;;;26.40;100.00
8398;BME280;4236;54.504;9.588;2023-08-20T08:30:38;102149.16;;;26.19;100.00
8398;BME280;4236;54.504;9.588;2023-08-20T08:33:07;102154.09;;;25.80;100.00
8398;BME280;4236;54.504;9.588;2023-08-20T08:35:35;102149.97;;;26.19;100.00
8398;BME280;4236;54.504;9.588;2023-08-20T08:38:03;102155.69;;;26.18;100.00
8398;BME280;4236;54.504;9.588;2023-08-20T08:40:33;102155.34;;;26.09;100.00
8398;BME280;4236;54.504;9.588;2023-08-20T08:43:01;102153.44;;;26.10;100.00
8398;BME280;4236;54.504;9.588;2023-08-20T08:45:29;102155.88;;;26.06;100.00
8398;BME280;4236;54.504;9.588;2023-08-20T08:48:02;102152.56;;;26.51;100.00
8398;BME280;4236;54.504;9.588;2023-08-20T08:50:31;102141.19;;;26.84;100.00
8398;BME280;4236;54.504;9.588;2023-08-20T08:52:59;102146.59;;;26.74;100.00
8398;BME280;4236;54.504;9.588;2023-08-20T08:55:27;102145.56;;;26.90;100.00
8398;BME280;4236;54.504;9.588;2023-08-20T08:57:56;102140.91;;;27.06;100.00
8398;BME280;4236;54.504;9.588;2023-08-20T09:00:24;102137.91;;;27.13;100.00
8398;BME280;4236;54.504;9.588;2023-08-20T09:02:51;102135.97;;;26.98;100.00
8398;BME280;4236;54.504;9.588;2023-08-20T09:05:19;102143.09;;;26.99;100.00
8398;BME280;4236;54.504;9.588;2023-08-20T09:07:47;102138.72;;;26.93;100.00
8398;BME280;4236;54.504;9.588;2023-08-20T09:10:22;102144.19;;;26.93;100.00
8398;BME280;4236;54.504;9.588;2023-08-20T09:12:49;102132.13;;;26.84;100.00
8398;BME280;4236;54.504;9.588;2023-08-20T09:15:18;102137.00;;;26.67;100.00
8398;BME280;4236;54.504;9.588;2023-08-20T09:17:46;102139.16;;;26.65;100.00
8398;BME280;4236;54.504;9.588;2023-08-20T09:20:14;102135.38;;;26.76;100.00
8398;BME280;4236;54.504;9.588;2023-08-20T09:22:48;102141.63;;;26.56;100.00
8398;BME280;4236;54.504;9.588;2023-08-20T09:25:16;102139.94;;;26.40;100.00
8398;BME280;4236;54.504;9.588;2023-08-20T09:27:44;102132.28;;;26.37;100.00
8398;BME280;4236;54.504;9.588;2023-08-20T09:30:19;102141.06;;;25.97;100.00
8398;BME280;4236;54.504;9.588;2023-08-20T09:33:03;102141.41;;;25.64;100.00
8398;BME280;4236;54.504;9.588;2023-08-20T09:35:31;102145.63;;;25.81;100.00
8398;BME280;4236;54.504;9.588;2023-08-20T09:37:59;102141.97;;;26.13;100.00
8398;BME280;4236;54.504;9.588;2023-08-20T09:40:27;102142.63;;;26.30;100.00
8398;BME280;4236;54.504;9.588;2023-08-20T09:42:55;102137.00;;;26.05;100.00
8398;BME280;4236;54.504;9.588;2023-08-20T09:45:28;102144.53;;;26.34;100.00
8398;BME280;4236;54.504;9.588;2023-08-20T09:47:58;102143.03;;;26.64;100.00
8398;BME280;4236;54.504;9.588;2023-08-20T09:50:27;102149.28;;;26.59;100.00
8398;BME280;4236;54.504;9.588;2023-08-20T09:52:58;102140.63;;;26.92;100.00
8398;BME280;4236;54.504;9.588;2023-08-20T09:55:30;102143.94;;;27.40;100.00
8398;BME280;4236;54.504;9.588;2023-08-20T09:58:01;102133.16;;;27.94;100.00
8398;BME280;4236;54.504;9.588;2023-08-20T10:00:31;102132.75;;;28.36;100.00
8398;BME280;4236;54.504;9.588;2023-08-20T10:02:59;102132.00;;;28.25;99.45
8398;BME280;4236;54.504;9.588;2023-08-20T10:05:27;102133.75;;;27.86;96.98
8398;BME280;4236;54.504;9.588;2023-08-20T10:07:55;102135.41;;;27.72;98.26
8398;BME280;4236;54.504;9.588;2023-08-20T10:10:25;102140.94;;;27.46;94.94
8398;BME280;4236;54.504;9.588;2023-08-20T10:12:54;102140.66;;;27.48;97.67
8398;BME280;4236;54.504;9.588;2023-08-20T10:15:23;102137.59;;;27.85;100.00
8398;BME280;4236;54.504;9.588;2023-08-20T10:17:57;102125.75;;;27.99;97.75
8398;BME280;4236;54.504;9.588;2023-08-20T10:20:28;102125.44;;;28.21;100.00
8398;BME280;4236;54.504;9.588;2023-08-20T10:23:00;102120.72;;;28.27;94.83
8398;BME280;4236;54.504;9.588;2023-08-20T10:25:29;102129.34;;;27.85;96.75
8398;BME280;4236;54.504;9.588;2023-08-20T10:28:11;102136.56;;;27.45;94.79
8398;BME280;4236;54.504;9.588;2023-08-20T10:31:04;102124.78;;;27.30;95.93
8398;BME280;4236;54.504;9.588;2023-08-20T10:33:35;102129.16;;;27.56;99.11
8398;BME280;4236;54.504;9.588;2023-08-20T10:36:07;102125.78;;;27.89;93.73
8398;BME280;4236;54.504;9.588;2023-08-20T10:38:36;102120.88;;;27.86;92.23
8398;BME280;4236;54.504;9.588;2023-08-20T10:41:08;102128.81;;;27.78;92.30
8398;BME280;4236;54.504;9.588;2023-08-20T10:43:37;102129.72;;;27.43;92.90
8398;BME280;4236;54.504;9.588;2023-08-20T10:46:06;102126.66;;;27.09;86.26
8398;BME280;4236;54.504;9.588;2023-08-20T10:48:38;102129.09;;;26.75;92.00
8398;BME280;4236;54.504;9.588;2023-08-20T10:51:11;102131.59;;;26.92;97.48
8398;BME280;4236;54.504;9.588;2023-08-20T10:53:41;102134.34;;;27.27;96.46
8398;BME280;4236;54.504;9.588;2023-08-20T10:56:11;102126.66;;;27.09;97.52
8398;BME280;4236;54.504;9.588;2023-08-20T10:58:44;102130.13;;;26.64;98.35
8398;BME280;4236;54.504;9.588;2023-08-20T11:01:13;102136.28;;;26.97;97.89
8398;BME280;4236;54.504;9.588;2023-08-20T11:03:44;102133.53;;;27.17;93.23
8398;BME280;4236;54.504;9.588;2023-08-20T11:06:12;102135.16;;;27.38;90.42
8398;BME280;4236;54.504;9.588;2023-08-20T11:08:41;102123.69;;;27.46;87.53
8398;BME280;4236;54.504;9.588;2023-08-20T11:11:09;102133.81;;;27.45;85.77
8398;BME280;4236;54.504;9.588;2023-08-20T11:13:38;102134.03;;;27.79;92.16
8398;BME280;4236;54.504;9.588;2023-08-20T11:16:06;102129.91;;;27.92;84.75
8398;BME280;4236;54.504;9.588;2023-08-20T11:18:34;102122.44;;;28.02;82.68
8398;BME280;4236;54.504;9.588;2023-08-20T11:21:03;102119.91;;;28.31;84.31
8398;BME280;4236;54.504;9.588;2023-08-20T11:23:31;102117.41;;;28.30;78.59
8398;BME280;4236;54.504;9.588;2023-08-20T11:26:00;102126.13;;;28.42;80.95
8398;BME280;4236;54.504;9.588;2023-08-20T11:28:28;102133.75;;;28.55;76.14
8398;BME280;4236;54.504;9.588;2023-08-20T11:30:56;102136.47;;;28.60;75.13
8398;BME280;4236;54.504;9.588;2023-08-20T11:33:24;102132.28;;;28.78;73.62
8398;BME280;4236;54.504;9.588;2023-08-20T11:35:53;102137.63;;;28.98;75.86
8398;BME280;4236;54.504;9.588;2023-08-20T11:38:23;102135.88;;;29.12;73.33
8398;BME280;4236;54.504;9.588;2023-08-20T11:40:51;102139.34;;;29.23;75.51
8398;BME280;4236;54.504;9.588;2023-08-20T11:43:19;102128.31;;;29.33;70.26
8398;BME280;4236;54.504;9.588;2023-08-20T11:45:48;102137.59;;;29.37;71.69
8398;BME280;4236;54.504;9.588;2023-08-20T11:48:17;102134.25;;;29.45;69.43
8398;BME280;4236;54.504;9.588;2023-08-20T11:50:44;102134.19;;;29.50;68.56
8398;BME280;4236;54.504;9.588;2023-08-20T11:53:12;102141.53;;;29.54;68.89
8398;BME280;4236;54.504;9.588;2023-08-20T11:55:42;102143.13;;;29.60;67.79
8398;BME280;4236;54.504;9.588;2023-08-20T11:58:14;102137.69;;;29.55;62.53
8398;BME280;4236;54.504;9.588;2023-08-20T12:00:42;102135.13;;;29.64;63.72
8398;BME280;4236;54.504;9.588;2023-08-20T12:03:09;102133.69;;;29.72;63.12
8398;BME280;4236;54.504;9.588;2023-08-20T12:05:41;102129.53;;;29.45;66.32
8398;BME280;4236;54.504;9.588;2023-08-20T12:08:15;102141.44;;;28.58;74.08
8398;BME280;4236;54.504;9.588;2023-08-20T12:10:46;102137.81;;;27.93;77.53
8398;BME280;4236;54.504;9.588;2023-08-20T12:13:13;102135.41;;;27.82;77.05
8398;BME280;4236;54.504;9.588;2023-08-20T12:15:41;102131.31;;;27.74;78.60
8398;BME280;4236;54.504;9.588;2023-08-20T12:18:09;102132.94;;;27.80;82.25
8398;BME280;4236;54.504;9.588;2023-08-20T12:20:37;102138.22;;;27.57;84.35
8398;BME280;4236;54.504;9.588;2023-08-20T12:23:06;102139.84;;;27.17;89.98
8398;BME280;4236;54.504;9.588;2023-08-20T12:25:35;102137.38;;;27.51;90.74
8398;BME280;4236;54.504;9.588;2023-08-20T12:28:05;102134.59;;;27.76;86.35
8398;BME280;4236;54.504;9.588;2023-08-20T12:30:34;102139.56;;;27.29;85.93
8398;BME280;4236;54.504;9.588;2023-08-20T12:33:05;102130.50;;;27.03;84.77
8398;BME280;4236;54.504;9.588;2023-08-20T12:35:34;102135.16;;;26.98;86.43
8398;BME280;4236;54.504;9.588;2023-08-20T12:38:01;102132.94;;;26.79;91.44
8398;BME280;4236;54.504;9.588;2023-08-20T12:40:30;102126.88;;;26.77;92.37
8398;BME280;4236;54.504;9.588;2023-08-20T12:42:58;102126.22;;;26.35;90.13
8398;BME280;4236;54.504;9.588;2023-08-20T12:45:27;102128.91;;;26.20;92.96
8398;BME280;4236;54.504;9.588;2023-08-20T12:47:55;102131.97;;;26.33;96.28
8398;BME280;4236;54.504;9.588;2023-08-20T12:50:27;102136.91;;;26.42;96.43
8398;BME280;4236;54.504;9.588;2023-08-20T12:52:55;102135.34;;;26.61;95.77
8398;BME280;4236;54.504;9.588;2023-08-20T12:55:23;102139.94;;;26.50;97.54
8398;BME280;4236;54.504;9.588;2023-08-20T12:57:55;102140.47;;;26.42;98.69
8398;BME280;4236;54.504;9.588;2023-08-20T13:00:24;102135.69;;;26.94;96.36
8398;BME280;4236;54.504;9.588;2023-08-20T13:02:54;102132.69;;;27.21;94.36
8398;BME280;4236;54.504;9.588;2023-08-20T13:05:23;102133.53;;;27.27;93.83
8398;BME280;4236;54.504;9.588;2023-08-20T13:07:52;102139.28;;;27.56;90.75
8398;BME280;4236;54.504;9.588;2023-08-20T13:10:21;102129.09;;;27.76;91.96
8398;BME280;4236;54.504;9.588;2023-08-20T13:12:50;102126.59;;;27.90;88.50